Canton, North Carolina
Current Conditions -  °F | °C
As of 3:54 AM on Friday 24 Oct 2014 (Local Time) from KAVL Reporting Station
Clear Clear  
Wind Chill: 40°   Ceiling: Unl
Heat Index: 43°   Visibility: 10mi
Dew Point: 38°   Wind: 5mph
Humidity: 82%   Direction: 340°NNW
Pressure: 30.08"   Gusts: NA
Location:  35.53°N, 82.84°W
Report Text: KAVL 240754Z AUTO 34004KT 10SM CLR 06/03 A3008 RMK AO2 SLP176 T00610033
Loading
Personal Weather Stations






























Interactive Weather Map
Tropical Storm Tracking
New forecast layout! Learn more

10-Day Weather Forecast

Advertisements
Track Severe Weather on mobile